Newark, Delaware
Current Conditions -  °F | °C
As of 3:51 AM on Friday 24 Oct 2014 (Local Time) from KILG Reporting Station
Broken Clouds Broken Clouds  
Wind Chill: 57°   Ceiling: 3400
Heat Index: 57°   Visibility: 10mi
Dew Point: 45°   Wind: 10mph
Humidity: 64%   Direction: 330°NNW
Pressure: 29.85"   Gusts: NA
Location:  39.68°N, 75.76°W
Report Text: KILG 240751Z 33009KT 10SM BKN034 14/07 A2985 RMK AO2 SLP107 T01390072
Loading
Personal Weather Stations






























Interactive Weather Map
Tropical Storm Tracking
New forecast layout! Learn more

10-Day Weather Forecast

Advertisements
Track Severe Weather on mobile